sensor_id;sensor_type;location;lat;lon;timestamp;temperature;humidity
29855;DHT22;16733;48.738;9.106;2022-12-16T00:00:31;-1.40;99.90
29855;DHT22;16733;48.738;9.106;2022-12-16T00:03:00;-1.40;99.90
29855;DHT22;16733;48.738;9.106;2022-12-16T00:05:27;-1.40;99.90
29855;DHT22;16733;48.738;9.106;2022-12-16T00:07:52;-1.40;99.90
29855;DHT22;16733;48.738;9.106;2022-12-16T00:10:20;-1.40;99.90
29855;DHT22;16733;48.738;9.106;2022-12-16T00:12:45;-1.40;99.90
29855;DHT22;16733;48.738;9.106;2022-12-16T00:15:11;-1.50;99.90
29855;DHT22;16733;48.738;9.106;2022-12-16T00:17:36;-1.50;99.90
29855;DHT22;16733;48.738;9.106;2022-12-16T00:20:04;-1.40;99.90
29855;DHT22;16733;48.738;9.106;2022-12-16T00:22:30;-1.40;99.90
29855;DHT22;16733;48.738;9.106;2022-12-16T00:24:56;-1.40;99.90
29855;DHT22;16733;48.738;9.106;2022-12-16T00:27:21;-1.40;99.90
29855;DHT22;16733;48.738;9.106;2022-12-16T00:29:47;-1.40;99.90
29855;DHT22;16733;48.738;9.106;2022-12-16T00:32:12;-1.40;99.90
29855;DHT22;16733;48.738;9.106;2022-12-16T00:34:38;-1.40;99.90
29855;DHT22;16733;48.738;9.106;2022-12-16T00:37:03;-1.40;99.90
29855;DHT22;16733;48.738;9.106;2022-12-16T00:39:29;-1.40;99.90
29855;DHT22;16733;48.738;9.106;2022-12-16T00:41:54;-1.40;99.90
29855;DHT22;16733;48.738;9.106;2022-12-16T00:44:20;-1.40;99.90
29855;DHT22;16733;48.738;9.106;2022-12-16T00:46:46;-1.40;99.90
29855;DHT22;16733;48.738;9.106;2022-12-16T00:49:11;-1.40;99.90
29855;DHT22;16733;48.738;9.106;2022-12-16T00:51:37;-1.50;99.90
29855;DHT22;16733;48.738;9.106;2022-12-16T00:54:02;-1.50;99.90
29855;DHT22;16733;48.738;9.106;2022-12-16T00:56:28;-1.50;99.90
29855;DHT22;16733;48.738;9.106;2022-12-16T00:58:54;-1.40;99.90
29855;DHT22;16733;48.738;9.106;2022-12-16T01:01:19;-1.50;99.90
29855;DHT22;16733;48.738;9.106;2022-12-16T01:03:45;-1.50;99.90
29855;DHT22;16733;48.738;9.106;2022-12-16T01:06:14;-1.50;99.90
29855;DHT22;16733;48.738;9.106;2022-12-16T01:08:40;-1.50;99.90
29855;DHT22;16733;48.738;9.106;2022-12-16T01:11:17;-1.50;99.90
29855;DHT22;16733;48.738;9.106;2022-12-16T01:13:43;-1.50;99.90
29855;DHT22;16733;48.738;9.106;2022-12-16T01:16:09;-1.50;99.90
29855;DHT22;16733;48.738;9.106;2022-12-16T01:18:35;-1.50;99.90
29855;DHT22;16733;48.738;9.106;2022-12-16T01:21:03;-1.50;99.90
29855;DHT22;16733;48.738;9.106;2022-12-16T01:23:28;-1.60;99.90
29855;DHT22;16733;48.738;9.106;2022-12-16T01:25:57;-1.50;99.90
29855;DHT22;16733;48.738;9.106;2022-12-16T01:28:22;-1.50;99.90
29855;DHT22;16733;48.738;9.106;2022-12-16T01:30:48;-1.60;99.90
29855;DHT22;16733;48.738;9.106;2022-12-16T01:33:14;-1.60;99.90
29855;DHT22;16733;48.738;9.106;2022-12-16T01:35:39;-1.60;99.90
29855;DHT22;16733;48.738;9.106;2022-12-16T01:38:05;-1.60;99.90
29855;DHT22;16733;48.738;9.106;2022-12-16T01:40:30;-1.60;99.90
29855;DHT22;16733;48.738;9.106;2022-12-16T01:42:56;-1.60;99.90
29855;DHT22;16733;48.738;9.106;2022-12-16T01:45:31;-1.60;99.90
29855;DHT22;16733;48.738;9.106;2022-12-16T01:48:00;-1.50;99.90
29855;DHT22;16733;48.738;9.106;2022-12-16T01:50:28;-1.50;99.90
29855;DHT22;16733;48.738;9.106;2022-12-16T01:52:56;-1.50;99.90
29855;DHT22;16733;48.738;9.106;2022-12-16T01:55:47;-1.50;99.90
29855;DHT22;16733;48.738;9.106;2022-12-16T01:58:18;-1.50;99.90
29855;DHT22;16733;48.738;9.106;2022-12-16T02:00:45;-1.50;99.90
29855;DHT22;16733;48.738;9.106;2022-12-16T02:03:10;-1.50;99.90
29855;DHT22;16733;48.738;9.106;2022-12-16T02:05:39;-1.50;99.90
29855;DHT22;16733;48.738;9.106;2022-12-16T02:13:21;-1.50;99.90
29855;DHT22;16733;48.738;9.106;2022-12-16T02:16:14;-1.50;99.90
29855;DHT22;16733;48.738;9.106;2022-12-16T02:27:02;-1.50;99.90
29855;DHT22;16733;48.738;9.106;2022-12-16T02:38:19;-1.50;99.90
29855;DHT22;16733;48.738;9.106;2022-12-16T02:43:57;-1.60;99.90
29855;DHT22;16733;48.738;9.106;2022-12-16T02:46:26;-1.60;99.90
29855;DHT22;16733;48.738;9.106;2022-12-16T02:48:53;-1.60;99.90
29855;DHT22;16733;48.738;9.106;2022-12-16T02:51:19;-1.60;99.90
29855;DHT22;16733;48.738;9.106;2022-12-16T02:53:46;-1.60;99.90
29855;DHT22;16733;48.738;9.106;2022-12-16T02:56:39;-1.60;99.90
29855;DHT22;16733;48.738;9.106;2022-12-16T03:01:46;-1.60;99.90
29855;DHT22;16733;48.738;9.106;2022-12-16T03:04:26;-1.60;99.90
29855;DHT22;16733;48.738;9.106;2022-12-16T03:06:54;-1.70;99.90
29855;DHT22;16733;48.738;9.106;2022-12-16T03:09:25;-1.60;99.90
29855;DHT22;16733;48.738;9.106;2022-12-16T03:11:53;-1.60;99.90
29855;DHT22;16733;48.738;9.106;2022-12-16T03:14:20;-1.60;99.90
29855;DHT22;16733;48.738;9.106;2022-12-16T03:16:48;-1.60;99.90
29855;DHT22;16733;48.738;9.106;2022-12-16T03:19:14;-1.60;99.90
29855;DHT22;16733;48.738;9.106;2022-12-16T03:21:51;-1.60;99.90
29855;DHT22;16733;48.738;9.106;2022-12-16T03:24:17;-1.60;99.90
29855;DHT22;16733;48.738;9.106;2022-12-16T03:32:30;-1.60;99.90
29855;DHT22;16733;48.738;9.106;2022-12-16T03:37:30;-1.60;99.90
29855;DHT22;16733;48.738;9.106;2022-12-16T03:40:00;-1.60;99.90
29855;DHT22;16733;48.738;9.106;2022-12-16T03:42:27;-1.60;99.90
29855;DHT22;16733;48.738;9.106;2022-12-16T03:44:52;-1.50;99.90
29855;DHT22;16733;48.738;9.106;2022-12-16T03:47:18;-1.60;99.90
29855;DHT22;16733;48.738;9.106;2022-12-16T03:49:44;-1.60;99.90
29855;DHT22;16733;48.738;9.106;2022-12-16T03:52:10;-1.60;99.90
29855;DHT22;16733;48.738;9.106;2022-12-16T03:54:35;-1.60;99.90
29855;DHT22;16733;48.738;9.106;2022-12-16T03:57:02;-1.60;99.90
29855;DHT22;16733;48.738;9.106;2022-12-16T03:59:28;-1.60;99.90
29855;DHT22;16733;48.738;9.106;2022-12-16T04:01:53;-1.60;99.90
29855;DHT22;16733;48.738;9.106;2022-12-16T04:04:19;-1.60;99.90
29855;DHT22;16733;48.738;9.106;2022-12-16T04:06:44;-1.60;99.90
29855;DHT22;16733;48.738;9.106;2022-12-16T04:09:10;-1.60;99.90
29855;DHT22;16733;48.738;9.106;2022-12-16T04:11:35;-1.60;99.90
29855;DHT22;16733;48.738;9.106;2022-12-16T04:14:19;-1.60;99.90
29855;DHT22;16733;48.738;9.106;2022-12-16T04:17:04;-1.60;99.90
29855;DHT22;16733;48.738;9.106;2022-12-16T04:19:49;-1.60;99.90
29855;DHT22;16733;48.738;9.106;2022-12-16T04:22:38;-1.60;99.90
29855;DHT22;16733;48.738;9.106;2022-12-16T04:25:27;-1.60;99.90
29855;DHT22;16733;48.738;9.106;2022-12-16T04:27:54;-1.60;99.90
29855;DHT22;16733;48.738;9.106;2022-12-16T04:30:20;-1.60;99.90
29855;DHT22;16733;48.738;9.106;2022-12-16T04:33:10;-1.60;99.90
29855;DHT22;16733;48.738;9.106;2022-12-16T04:35:54;-1.60;99.90
29855;DHT22;16733;48.738;9.106;2022-12-16T04:38:38;-1.60;99.90
29855;DHT22;16733;48.738;9.106;2022-12-16T04:41:22;-1.60;99.90
29855;DHT22;16733;48.738;9.106;2022-12-16T04:44:06;-1.70;99.90
29855;DHT22;16733;48.738;9.106;2022-12-16T04:46:51;-1.60;99.90
29855;DHT22;16733;48.738;9.106;2022-12-16T04:49:35;-1.70;99.90
29855;DHT22;16733;48.738;9.106;2022-12-16T04:52:19;-1.70;99.90
29855;DHT22;16733;48.738;9.106;2022-12-16T04:55:04;-1.70;99.90
29855;DHT22;16733;48.738;9.106;2022-12-16T04:57:57;-1.60;99.90
29855;DHT22;16733;48.738;9.106;2022-12-16T05:00:42;-1.60;99.90
29855;DHT22;16733;48.738;9.106;2022-12-16T05:03:46;-1.60;99.90
29855;DHT22;16733;48.738;9.106;2022-12-16T05:06:30;-1.60;99.90
29855;DHT22;16733;48.738;9.106;2022-12-16T05:09:14;-1.70;99.90
29855;DHT22;16733;48.738;9.106;2022-12-16T05:11:58;-1.70;99.90
29855;DHT22;16733;48.738;9.106;2022-12-16T05:14:42;-1.70;99.90
29855;DHT22;16733;48.738;9.106;2022-12-16T05:17:26;-1.70;99.90
29855;DHT22;16733;48.738;9.106;2022-12-16T05:20:10;-1.60;99.90
29855;DHT22;16733;48.738;9.106;2022-12-16T05:22:55;-1.60;99.90
29855;DHT22;16733;48.738;9.106;2022-12-16T05:25:39;-1.70;99.90
29855;DHT22;16733;48.738;9.106;2022-12-16T05:28:23;-1.70;99.90
29855;DHT22;16733;48.738;9.106;2022-12-16T05:31:07;-1.60;99.90
29855;DHT22;16733;48.738;9.106;2022-12-16T05:33:52;-1.60;99.90
29855;DHT22;16733;48.738;9.106;2022-12-16T05:36:36;-1.70;99.90
29855;DHT22;16733;48.738;9.106;2022-12-16T05:39:20;-1.60;99.90
29855;DHT22;16733;48.738;9.106;2022-12-16T05:42:04;-1.60;99.90
29855;DHT22;16733;48.738;9.106;2022-12-16T05:44:48;-1.70;99.90
29855;DHT22;16733;48.738;9.106;2022-12-16T05:47:51;-1.70;99.90
29855;DHT22;16733;48.738;9.106;2022-12-16T05:50:35;-1.60;99.90
29855;DHT22;16733;48.738;9.106;2022-12-16T05:53:22;-1.60;99.90
29855;DHT22;16733;48.738;9.106;2022-12-16T05:56:06;-1.60;99.90
29855;DHT22;16733;48.738;9.106;2022-12-16T05:58:51;-1.60;99.90
29855;DHT22;16733;48.738;9.106;2022-12-16T06:01:35;-1.70;99.90
29855;DHT22;16733;48.738;9.106;2022-12-16T06:04:19;-1.60;99.90
29855;DHT22;16733;48.738;9.106;2022-12-16T06:07:03;-1.70;99.90
29855;DHT22;16733;48.738;9.106;2022-12-16T06:09:47;-1.70;99.90
29855;DHT22;16733;48.738;9.106;2022-12-16T06:12:31;-1.70;99.90
29855;DHT22;16733;48.738;9.106;2022-12-16T06:15:15;-1.70;99.90
29855;DHT22;16733;48.738;9.106;2022-12-16T06:17:59;-1.70;99.90
29855;DHT22;16733;48.738;9.106;2022-12-16T06:20:43;-1.70;99.90
29855;DHT22;16733;48.738;9.106;2022-12-16T06:23:27;-1.70;99.90
29855;DHT22;16733;48.738;9.106;2022-12-16T06:26:12;-1.70;99.90
29855;DHT22;16733;48.738;9.106;2022-12-16T06:28:56;-1.70;99.90
29855;DHT22;16733;48.738;9.106;2022-12-16T06:31:40;-1.70;99.90
29855;DHT22;16733;48.738;9.106;2022-12-16T06:34:24;-1.70;99.90
29855;DHT22;16733;48.738;9.106;2022-12-16T06:37:08;-1.60;99.90
29855;DHT22;16733;48.738;9.106;2022-12-16T06:39:52;-1.60;99.90
29855;DHT22;16733;48.738;9.106;2022-12-16T06:42:40;-1.60;99.90
29855;DHT22;16733;48.738;9.106;2022-12-16T06:45:24;-1.60;99.90
29855;DHT22;16733;48.738;9.106;2022-12-16T06:48:08;-1.60;99.90
29855;DHT22;16733;48.738;9.106;2022-12-16T06:50:52;-1.60;99.90
29855;DHT22;16733;48.738;9.106;2022-12-16T06:53:37;-1.60;99.90
29855;DHT22;16733;48.738;9.106;2022-12-16T06:56:21;-1.60;99.90
29855;DHT22;16733;48.738;9.106;2022-12-16T06:59:05;-1.60;99.90
29855;DHT22;16733;48.738;9.106;2022-12-16T07:01:49;-1.50;99.90
29855;DHT22;16733;48.738;9.106;2022-12-16T07:04:33;-1.60;99.90
29855;DHT22;16733;48.738;9.106;2022-12-16T07:07:17;-1.60;99.90
29855;DHT22;16733;48.738;9.106;2022-12-16T07:10:02;-1.60;99.90
29855;DHT22;16733;48.738;9.106;2022-12-16T07:12:46;-1.60;99.90
29855;DHT22;16733;48.738;9.106;2022-12-16T07:15:30;-1.60;99.90
29855;DHT22;16733;48.738;9.106;2022-12-16T07:18:14;-1.60;99.90
29855;DHT22;16733;48.738;9.106;2022-12-16T07:20:58;-1.60;99.90
29855;DHT22;16733;48.738;9.106;2022-12-16T07:23:42;-1.50;99.90
29855;DHT22;16733;48.738;9.106;2022-12-16T07:26:27;-1.60;99.90
29855;DHT22;16733;48.738;9.106;2022-12-16T07:29:10;-1.60;99.90
29855;DHT22;16733;48.738;9.106;2022-12-16T07:31:55;-1.60;99.90
29855;DHT22;16733;48.738;9.106;2022-12-16T07:34:39;-1.60;99.90
29855;DHT22;16733;48.738;9.106;2022-12-16T07:37:27;-1.60;99.90
29855;DHT22;16733;48.738;9.106;2022-12-16T07:40:11;-1.50;99.90
29855;DHT22;16733;48.738;9.106;2022-12-16T07:42:56;-1.50;99.90
29855;DHT22;16733;48.738;9.106;2022-12-16T07:45:40;-1.50;99.90
29855;DHT22;16733;48.738;9.106;2022-12-16T07:48:24;-1.50;99.90
29855;DHT22;16733;48.738;9.106;2022-12-16T07:51:08;-1.50;99.90
29855;DHT22;16733;48.738;9.106;2022-12-16T07:53:52;-1.50;99.90
29855;DHT22;16733;48.738;9.106;2022-12-16T07:56:36;-1.50;99.90
29855;DHT22;16733;48.738;9.106;2022-12-16T07:59:20;-1.50;99.90
29855;DHT22;16733;48.738;9.106;2022-12-16T08:02:06;-1.50;99.90
29855;DHT22;16733;48.738;9.106;2022-12-16T08:04:51;-1.50;99.90
29855;DHT22;16733;48.738;9.106;2022-12-16T08:07:39;-1.50;99.90
29855;DHT22;16733;48.738;9.106;2022-12-16T08:10:22;-1.40;99.90
29855;DHT22;16733;48.738;9.106;2022-12-16T08:13:06;-1.40;99.90
29855;DHT22;16733;48.738;9.106;2022-12-16T08:15:50;-1.40;99.90
29855;DHT22;16733;48.738;9.106;2022-12-16T08:18:35;-1.40;99.90
29855;DHT22;16733;48.738;9.106;2022-12-16T08:21:19;-1.30;99.90
29855;DHT22;16733;48.738;9.106;2022-12-16T08:24:03;-1.30;99.90
29855;DHT22;16733;48.738;9.106;2022-12-16T08:26:47;-1.30;99.90
29855;DHT22;16733;48.738;9.106;2022-12-16T08:29:31;-1.20;99.90
29855;DHT22;16733;48.738;9.106;2022-12-16T08:32:16;-1.20;99.90
29855;DHT22;16733;48.738;9.106;2022-12-16T08:35:01;-1.10;99.90
29855;DHT22;16733;48.738;9.106;2022-12-16T08:37:46;-1.10;99.90
29855;DHT22;16733;48.738;9.106;2022-12-16T08:40:30;-1.10;99.90
29855;DHT22;16733;48.738;9.106;2022-12-16T08:43:14;-1.10;99.90
29855;DHT22;16733;48.738;9.106;2022-12-16T08:45:59;-1.10;99.90
29855;DHT22;16733;48.738;9.106;2022-12-16T08:48:43;-1.10;99.90
29855;DHT22;16733;48.738;9.106;2022-12-16T08:51:27;-1.10;99.90
29855;DHT22;16733;48.738;9.106;2022-12-16T08:54:11;-1.10;99.90
29855;DHT22;16733;48.738;9.106;2022-12-16T08:56:56;-1.10;99.90
29855;DHT22;16733;48.738;9.106;2022-12-16T08:59:40;-1.10;99.90
29855;DHT22;16733;48.738;9.106;2022-12-16T09:02:25;-1.10;99.90
29855;DHT22;16733;48.738;9.106;2022-12-16T09:05:09;-1.10;99.90
29855;DHT22;16733;48.738;9.106;2022-12-16T09:07:59;-1.10;99.90
29855;DHT22;16733;48.738;9.106;2022-12-16T09:10:44;-1.10;99.90
29855;DHT22;16733;48.738;9.106;2022-12-16T09:13:28;-1.10;99.90
29855;DHT22;16733;48.738;9.106;2022-12-16T09:16:12;-1.10;99.90
29855;DHT22;16733;48.738;9.106;2022-12-16T09:18:55;-1.10;99.90
29855;DHT22;16733;48.738;9.106;2022-12-16T09:21:40;-1.10;99.90
29855;DHT22;16733;48.738;9.106;2022-12-16T09:24:24;-1.10;99.90
29855;DHT22;16733;48.738;9.106;2022-12-16T09:27:08;-1.10;99.90
29855;DHT22;16733;48.738;9.106;2022-12-16T09:29:52;-1.00;99.90
29855;DHT22;16733;48.738;9.106;2022-12-16T09:32:40;-1.00;99.90
29855;DHT22;16733;48.738;9.106;2022-12-16T09:35:25;-1.00;99.90
29855;DHT22;16733;48.738;9.106;2022-12-16T09:38:09;-1.00;99.90
29855;DHT22;16733;48.738;9.106;2022-12-16T09:40:53;-1.10;99.90
29855;DHT22;16733;48.738;9.106;2022-12-16T09:43:55;-1.10;99.90
29855;DHT22;16733;48.738;9.106;2022-12-16T09:46:55;-1.10;99.90
29855;DHT22;16733;48.738;9.106;2022-12-16T09:49:47;-1.10;99.90
29855;DHT22;16733;48.738;9.106;2022-12-16T09:52:38;-1.10;99.90
29855;DHT22;16733;48.738;9.106;2022-12-16T09:55:33;-1.10;99.90
29855;DHT22;16733;48.738;9.106;2022-12-16T09:58:22;-1.00;99.90
29855;DHT22;16733;48.738;9.106;2022-12-16T10:01:10;-1.00;99.90
29855;DHT22;16733;48.738;9.106;2022-12-16T10:03:55;-1.00;99.90
29855;DHT22;16733;48.738;9.106;2022-12-16T10:06:46;-1.00;99.90
29855;DHT22;16733;48.738;9.106;2022-12-16T10:12:48;-1.00;99.90
29855;DHT22;16733;48.738;9.106;2022-12-16T10:19:00;-1.00;99.90
29855;DHT22;16733;48.738;9.106;2022-12-16T10:27:47;-0.90;99.90
29855;DHT22;16733;48.738;9.106;2022-12-16T10:30:34;-0.90;99.90
29855;DHT22;16733;48.738;9.106;2022-12-16T10:33:21;-0.80;99.90
29855;DHT22;16733;48.738;9.106;2022-12-16T10:36:11;-0.90;99.90
29855;DHT22;16733;48.738;9.106;2022-12-16T10:39:02;-0.80;99.90
29855;DHT22;16733;48.738;9.106;2022-12-16T10:41:49;-0.80;99.90
29855;DHT22;16733;48.738;9.106;2022-12-16T10:44:49;-0.80;99.90
29855;DHT22;16733;48.738;9.106;2022-12-16T10:47:35;-0.80;99.90
29855;DHT22;16733;48.738;9.106;2022-12-16T10:50:19;-0.80;99.90
29855;DHT22;16733;48.738;9.106;2022-12-16T10:53:23;-0.80;99.90
29855;DHT22;16733;48.738;9.106;2022-12-16T10:56:49;-0.70;99.90
29855;DHT22;16733;48.738;9.106;2022-12-16T10:59:38;-0.70;99.90
29855;DHT22;16733;48.738;9.106;2022-12-16T11:02:27;-0.70;99.90
29855;DHT22;16733;48.738;9.106;2022-12-16T11:08:33;-0.70;99.90
29855;DHT22;16733;48.738;9.106;2022-12-16T11:11:28;-0.70;99.90
29855;DHT22;16733;48.738;9.106;2022-12-16T11:14:29;-0.60;99.90
29855;DHT22;16733;48.738;9.106;2022-12-16T11:20:20;-0.40;99.90
29855;DHT22;16733;48.738;9.106;2022-12-16T11:26:15;-0.30;99.90
29855;DHT22;16733;48.738;9.106;2022-12-16T11:29:17;-0.30;99.90
29855;DHT22;16733;48.738;9.106;2022-12-16T11:35:08;-0.20;99.90
29855;DHT22;16733;48.738;9.106;2022-12-16T11:37:54;-0.30;99.90
29855;DHT22;16733;48.738;9.106;2022-12-16T11:40:39;-0.30;99.90
29855;DHT22;16733;48.738;9.106;2022-12-16T11:43:24;-0.20;99.90
29855;DHT22;16733;48.738;9.106;2022-12-16T11:46:25;-0.20;99.90
29855;DHT22;16733;48.738;9.106;2022-12-16T11:49:18;-0.20;99.90
29855;DHT22;16733;48.738;9.106;2022-12-16T11:52:05;-0.30;99.90
29855;DHT22;16733;48.738;9.106;2022-12-16T11:58:28;-0.30;99.90
29855;DHT22;16733;48.738;9.106;2022-12-16T12:04:12;-0.40;99.90
29855;DHT22;16733;48.738;9.106;2022-12-16T12:07:12;-0.40;99.90
29855;DHT22;16733;48.738;9.106;2022-12-16T12:16:16;-0.50;99.90
29855;DHT22;16733;48.738;9.106;2022-12-16T12:19:06;-0.50;99.90
29855;DHT22;16733;48.738;9.106;2022-12-16T12:22:38;-0.40;99.90
29855;DHT22;16733;48.738;9.106;2022-12-16T12:25:12;-0.30;99.90
29855;DHT22;16733;48.738;9.106;2022-12-16T12:34:15;-0.10;99.90
29855;DHT22;16733;48.738;9.106;2022-12-16T12:37:25;-0.10;99.90
29855;DHT22;16733;48.738;9.106;2022-12-16T12:40:25;-0.10;99.90
29855;DHT22;16733;48.738;9.106;2022-12-16T12:49:49;-0.10;99.90
29855;DHT22;16733;48.738;9.106;2022-12-16T12:55:59;-0.20;99.90
29855;DHT22;16733;48.738;9.106;2022-12-16T12:58:48;-0.30;99.90
29855;DHT22;16733;48.738;9.106;2022-12-16T13:01:36;-0.40;99.90
29855;DHT22;16733;48.738;9.106;2022-12-16T13:04:43;-0.40;99.90
29855;DHT22;16733;48.738;9.106;2022-12-16T13:07:31;-0.30;99.90
29855;DHT22;16733;48.738;9.106;2022-12-16T13:16:03;-0.30;99.90
29855;DHT22;16733;48.738;9.106;2022-12-16T13:18:48;-0.40;99.90
29855;DHT22;16733;48.738;9.106;2022-12-16T13:21:52;-0.30;99.90
29855;DHT22;16733;48.738;9.106;2022-12-16T13:24:47;-0.30;99.90
29855;DHT22;16733;48.738;9.106;2022-12-16T13:27:51;-0.30;99.90
29855;DHT22;16733;48.738;9.106;2022-12-16T13:30:37;-0.40;99.90
29855;DHT22;16733;48.738;9.106;2022-12-16T13:33:29;-0.40;99.90
29855;DHT22;16733;48.738;9.106;2022-12-16T13:36:16;-0.40;99.90
29855;DHT22;16733;48.738;9.106;2022-12-16T13:39:28;-0.40;99.90
29855;DHT22;16733;48.738;9.106;2022-12-16T13:42:48;-0.40;99.90
29855;DHT22;16733;48.738;9.106;2022-12-16T13:57:18;-0.50;99.90
29855;DHT22;16733;48.738;9.106;2022-12-16T14:00:04;-0.70;99.90
29855;DHT22;16733;48.738;9.106;2022-12-16T14:02:51;-0.70;99.90
29855;DHT22;16733;48.738;9.106;2022-12-16T14:05:36;-0.80;99.90
29855;DHT22;16733;48.738;9.106;2022-12-16T14:08:25;-0.90;99.90
29855;DHT22;16733;48.738;9.106;2022-12-16T14:11:30;-0.90;99.90
29855;DHT22;16733;48.738;9.106;2022-12-16T14:14:29;-0.80;99.90
29855;DHT22;16733;48.738;9.106;2022-12-16T14:17:20;-0.80;99.90
29855;DHT22;16733;48.738;9.106;2022-12-16T14:20:29;-0.80;99.90
29855;DHT22;16733;48.738;9.106;2022-12-16T14:23:34;-0.80;99.90
29855;DHT22;16733;48.738;9.106;2022-12-16T14:26:21;-0.80;99.90
29855;DHT22;16733;48.738;9.106;2022-12-16T14:29:19;-0.90;99.90
29855;DHT22;16733;48.738;9.106;2022-12-16T14:41:10;-1.00;99.90
29855;DHT22;16733;48.738;9.106;2022-12-16T14:43:54;-1.00;99.90
29855;DHT22;16733;48.738;9.106;2022-12-16T14:46:38;-1.00;99.90
29855;DHT22;16733;48.738;9.106;2022-12-16T14:49:25;-1.10;99.90
29855;DHT22;16733;48.738;9.106;2022-12-16T14:52:22;-1.10;99.90
29855;DHT22;16733;48.738;9.106;2022-12-16T14:55:16;-1.10;99.90
29855;DHT22;16733;48.738;9.106;2022-12-16T14:58:02;-1.10;99.90
29855;DHT22;16733;48.738;9.106;2022-12-16T15:00:47;-1.10;99.90
29855;DHT22;16733;48.738;9.106;2022-12-16T15:03:59;-1.10;99.90
29855;DHT22;16733;48.738;9.106;2022-12-16T15:06:45;-1.10;99.90
29855;DHT22;16733;48.738;9.106;2022-12-16T15:09:43;-1.20;99.90
29855;DHT22;16733;48.738;9.106;2022-12-16T15:12:33;-1.10;99.90
29855;DHT22;16733;48.738;9.106;2022-12-16T15:15:29;-1.10;99.90
29855;DHT22;16733;48.738;9.106;2022-12-16T15:18:25;-1.10;99.90
29855;DHT22;16733;48.738;9.106;2022-12-16T15:21:10;-1.10;99.90
29855;DHT22;16733;48.738;9.106;2022-12-16T15:23:55;-1.20;99.90
29855;DHT22;16733;48.738;9.106;2022-12-16T15:26:39;-1.20;99.90
29855;DHT22;16733;48.738;9.106;2022-12-16T15:29:34;-1.20;99.90
29855;DHT22;16733;48.738;9.106;2022-12-16T15:41:03;-1.20;99.90
29855;DHT22;16733;48.738;9.106;2022-12-16T15:43:47;-1.30;99.90
29855;DHT22;16733;48.738;9.106;2022-12-16T15:46:33;-1.30;99.90
29855;DHT22;16733;48.738;9.106;2022-12-16T15:49:21;-1.20;99.90
29855;DHT22;16733;48.738;9.106;2022-12-16T15:52:38;-1.20;99.90
29855;DHT22;16733;48.738;9.106;2022-12-16T15:55:35;-1.20;99.90
29855;DHT22;16733;48.738;9.106;2022-12-16T15:58:34;-1.20;99.90
29855;DHT22;16733;48.738;9.106;2022-12-16T16:01:23;-1.20;99.90
29855;DHT22;16733;48.738;9.106;2022-12-16T16:04:34;-1.30;99.90
29855;DHT22;16733;48.738;9.106;2022-12-16T16:07:35;-1.30;99.90
29855;DHT22;16733;48.738;9.106;2022-12-16T16:10:22;-1.20;99.90
29855;DHT22;16733;48.738;9.106;2022-12-16T16:13:08;-1.30;99.90
29855;DHT22;16733;48.738;9.106;2022-12-16T16:15:53;-1.30;99.90
29855;DHT22;16733;48.738;9.106;2022-12-16T16:18:37;-1.30;99.90
29855;DHT22;16733;48.738;9.106;2022-12-16T16:21:22;-1.30;99.90
29855;DHT22;16733;48.738;9.106;2022-12-16T16:24:06;-1.30;99.90
29855;DHT22;16733;48.738;9.106;2022-12-16T16:26:52;-1.30;99.90
29855;DHT22;16733;48.738;9.106;2022-12-16T16:29:37;-1.30;99.90
29855;DHT22;16733;48.738;9.106;2022-12-16T16:32:21;-1.30;99.90
29855;DHT22;16733;48.738;9.106;2022-12-16T16:35:06;-1.30;99.90
29855;DHT22;16733;48.738;9.106;2022-12-16T16:37:50;-1.30;99.90
29855;DHT22;16733;48.738;9.106;2022-12-16T16:40:36;-1.30;99.90
29855;DHT22;16733;48.738;9.106;2022-12-16T16:43:21;-1.30;99.90
29855;DHT22;16733;48.738;9.106;2022-12-16T16:46:29;-1.30;99.90
29855;DHT22;16733;48.738;9.106;2022-12-16T16:49:32;-1.30;99.90
29855;DHT22;16733;48.738;9.106;2022-12-16T16:52:19;-1.30;99.90
29855;DHT22;16733;48.738;9.106;2022-12-16T16:55:05;-1.30;99.90
29855;DHT22;16733;48.738;9.106;2022-12-16T16:57:49;-1.30;99.90
29855;DHT22;16733;48.738;9.106;2022-12-16T17:00:34;-1.30;99.90
29855;DHT22;16733;48.738;9.106;2022-12-16T17:03:18;-1.30;99.90
29855;DHT22;16733;48.738;9.106;2022-12-16T17:06:02;-1.30;99.90
29855;DHT22;16733;48.738;9.106;2022-12-16T17:08:46;-1.30;99.90
29855;DHT22;16733;48.738;9.106;2022-12-16T17:11:31;-1.30;99.90
29855;DHT22;16733;48.738;9.106;2022-12-16T17:14:17;-1.30;99.90
29855;DHT22;16733;48.738;9.106;2022-12-16T17:17:02;-1.40;99.90
29855;DHT22;16733;48.738;9.106;2022-12-16T17:19:47;-1.40;99.90
29855;DHT22;16733;48.738;9.106;2022-12-16T17:22:32;-1.40;99.90
29855;DHT22;16733;48.738;9.106;2022-12-16T17:25:16;-1.40;99.90
29855;DHT22;16733;48.738;9.106;2022-12-16T17:28:00;-1.50;99.90
29855;DHT22;16733;48.738;9.106;2022-12-16T17:30:45;-1.50;99.90
29855;DHT22;16733;48.738;9.106;2022-12-16T17:33:40;-1.50;99.90
29855;DHT22;16733;48.738;9.106;2022-12-16T17:36:24;-1.50;99.90
29855;DHT22;16733;48.738;9.106;2022-12-16T17:39:25;-1.50;99.90
29855;DHT22;16733;48.738;9.106;2022-12-16T17:42:09;-1.50;99.90
29855;DHT22;16733;48.738;9.106;2022-12-16T17:44:53;-1.50;99.90
29855;DHT22;16733;48.738;9.106;2022-12-16T17:47:37;-1.50;99.90
29855;DHT22;16733;48.738;9.106;2022-12-16T17:50:21;-1.50;99.90
29855;DHT22;16733;48.738;9.106;2022-12-16T17:53:05;-1.50;99.90
29855;DHT22;16733;48.738;9.106;2022-12-16T17:55:50;-1.40;99.90
29855;DHT22;16733;48.738;9.106;2022-12-16T17:58:36;-1.40;99.90
29855;DHT22;16733;48.738;9.106;2022-12-16T18:01:21;-1.40;99.90
29855;DHT22;16733;48.738;9.106;2022-12-16T18:04:06;-1.40;99.90
29855;DHT22;16733;48.738;9.106;2022-12-16T18:06:50;-1.40;99.90
29855;DHT22;16733;48.738;9.106;2022-12-16T18:09:35;-1.40;99.90
29855;DHT22;16733;48.738;9.106;2022-12-16T18:12:19;-1.40;99.90
29855;DHT22;16733;48.738;9.106;2022-12-16T18:15:04;-1.40;99.90
29855;DHT22;16733;48.738;9.106;2022-12-16T18:17:48;-1.40;99.90
29855;DHT22;16733;48.738;9.106;2022-12-16T18:20:33;-1.40;99.90
29855;DHT22;16733;48.738;9.106;2022-12-16T18:23:18;-1.40;99.90
29855;DHT22;16733;48.738;9.106;2022-12-16T18:26:06;-1.40;99.90
29855;DHT22;16733;48.738;9.106;2022-12-16T18:28:51;-1.40;99.90
29855;DHT22;16733;48.738;9.106;2022-12-16T18:31:35;-1.40;99.90
29855;DHT22;16733;48.738;9.106;2022-12-16T18:34:19;-1.40;99.90
29855;DHT22;16733;48.738;9.106;2022-12-16T18:37:04;-1.40;99.90
29855;DHT22;16733;48.738;9.106;2022-12-16T18:39:56;-1.40;99.90
29855;DHT22;16733;48.738;9.106;2022-12-16T18:42:40;-1.40;99.90
29855;DHT22;16733;48.738;9.106;2022-12-16T18:45:24;-1.40;99.90
29855;DHT22;16733;48.738;9.106;2022-12-16T18:48:08;-1.40;99.90
29855;DHT22;16733;48.738;9.106;2022-12-16T18:51:12;-1.40;99.90
29855;DHT22;16733;48.738;9.106;2022-12-16T18:53:56;-1.40;99.90
29855;DHT22;16733;48.738;9.106;2022-12-16T18:56:40;-1.40;99.90
29855;DHT22;16733;48.738;9.106;2022-12-16T18:59:25;-1.40;99.90
29855;DHT22;16733;48.738;9.106;2022-12-16T19:02:09;-1.30;99.90
29855;DHT22;16733;48.738;9.106;2022-12-16T19:04:53;-1.30;99.90
29855;DHT22;16733;48.738;9.106;2022-12-16T19:07:37;-1.30;99.90
29855;DHT22;16733;48.738;9.106;2022-12-16T19:10:21;-1.30;99.90
29855;DHT22;16733;48.738;9.106;2022-12-16T19:13:05;-1.30;99.90
29855;DHT22;16733;48.738;9.106;2022-12-16T19:15:54;-1.30;99.90